createdAt,value
2018-11-01T00:02:16.666Z,3.33
2018-11-01T00:04:48.319Z,3.33
2018-11-01T00:07:19.879Z,3.17
2018-11-01T00:09:51.442Z,2.80
2018-11-01T00:12:23.053Z,3.60
2018-11-01T00:14:54.647Z,3.57
2018-11-01T00:17:26.249Z,3.37
2018-11-01T00:19:57.876Z,3.37
2018-11-01T00:22:29.738Z,3.00
2018-11-01T00:25:01.275Z,3.60
2018-11-01T00:27:32.846Z,3.27
2018-11-01T00:30:04.766Z,3.20
2018-11-01T00:32:36.349Z,3.20
2018-11-01T00:35:08.765Z,3.03
2018-11-01T00:37:40.261Z,3.03
2018-11-01T00:40:14.463Z,3.30
2018-11-01T00:42:46.048Z,3.67
2018-11-01T00:45:17.548Z,3.80
2018-11-01T00:47:49.214Z,3.40
2018-11-01T00:50:20.671Z,3.70
2018-11-01T00:52:52.028Z,3.07
2018-11-01T00:55:23.639Z,3.63
2018-11-01T00:57:55.197Z,3.57
2018-11-01T01:00:26.676Z,3.77
2018-11-01T01:02:58.168Z,3.33
2018-11-01T01:05:29.799Z,3.20
2018-11-01T01:08:01.331Z,3.40
2018-11-01T01:10:32.837Z,3.97
2018-11-01T01:13:04.633Z,3.50
2018-11-01T01:15:36.348Z,3.50
2018-11-01T01:18:07.888Z,3.80
2018-11-01T01:20:39.568Z,3.50
2018-11-01T01:23:11.163Z,3.63
2018-11-01T01:25:42.752Z,3.13
2018-11-01T01:28:14.526Z,3.10
2018-11-01T01:30:46.096Z,3.23
2018-11-01T01:33:17.657Z,3.90
2018-11-01T01:35:49.203Z,3.23
2018-11-01T01:38:20.834Z,3.70
2018-11-01T01:40:52.457Z,3.47
2018-11-01T01:43:23.996Z,3.37
2018-11-01T01:45:55.439Z,3.77
2018-11-01T01:48:26.937Z,3.50
2018-11-01T01:50:58.462Z,3.30
2018-11-01T01:53:30.092Z,3.67
2018-11-01T01:56:01.553Z,3.90
2018-11-01T01:58:33.072Z,3.87
2018-11-01T02:01:04.591Z,3.67
2018-11-01T02:03:36.139Z,3.33
2018-11-01T02:06:07.836Z,3.60
2018-11-01T02:08:39.373Z,3.67
2018-11-01T02:11:10.974Z,3.50
2018-11-01T02:13:42.600Z,3.37
2018-11-01T02:16:14.113Z,3.57
2018-11-01T02:18:45.709Z,3.50
2018-11-01T02:21:17.230Z,3.10
2018-11-01T02:23:48.800Z,3.60
2018-11-01T02:26:20.357Z,3.23
2018-11-01T02:28:51.880Z,3.70
2018-11-01T02:31:23.554Z,3.57
2018-11-01T02:33:54.974Z,3.30
2018-11-01T02:36:26.659Z,3.43
2018-11-01T02:38:58.388Z,3.77
2018-11-01T02:41:29.953Z,3.90
2018-11-01T02:44:01.462Z,3.50
2018-11-01T02:46:32.980Z,3.50
2018-11-01T02:49:04.536Z,3.30
2018-11-01T02:51:36.024Z,3.53
2018-11-01T02:54:07.956Z,3.57
2018-11-01T02:56:39.480Z,3.33
2018-11-01T02:59:11.209Z,3.60
2018-11-01T03:01:42.699Z,3.70
2018-11-01T03:04:14.306Z,3.63
2018-11-01T03:06:45.810Z,3.43
2018-11-01T03:09:17.531Z,3.33
2018-11-01T03:11:49.053Z,4.90
2018-11-01T03:14:20.561Z,3.43
2018-11-01T03:16:52.148Z,3.67
2018-11-01T03:19:23.650Z,3.60
2018-11-01T03:21:55.177Z,3.13
2018-11-01T03:24:26.782Z,3.47
2018-11-01T03:26:58.222Z,3.90
2018-11-01T03:29:29.865Z,3.57
2018-11-01T03:32:01.418Z,3.47
2018-11-01T03:34:33.059Z,3.73
2018-11-01T03:37:04.617Z,3.57
2018-11-01T03:39:36.234Z,3.70
2018-11-01T03:42:07.828Z,3.60
2018-11-01T03:44:39.387Z,4.53
2018-11-01T03:47:10.928Z,4.83
2018-11-01T03:49:42.547Z,8.93
2018-11-01T03:52:14.097Z,10.33
2018-11-01T03:54:45.580Z,9.43
2018-11-01T03:57:17.161Z,9.80
2018-11-01T03:59:48.863Z,8.93
2018-11-01T04:02:20.559Z,8.50
2018-11-01T04:04:52.125Z,7.87
2018-11-01T04:07:23.699Z,7.00
2018-11-01T04:09:55.348Z,7.47
2018-11-01T04:12:26.953Z,8.47
2018-11-01T04:14:58.452Z,8.67
2018-11-01T04:17:29.927Z,9.07
2018-11-01T04:20:01.560Z,7.50
2018-11-01T04:22:33.095Z,8.43
2018-11-01T04:25:04.652Z,7.70
2018-11-01T04:27:36.187Z,5.97
2018-11-01T04:30:08.520Z,6.57
2018-11-01T04:32:40.066Z,6.33
2018-11-01T04:35:11.648Z,6.30
2018-11-01T04:37:43.133Z,5.77
2018-11-01T04:40:14.753Z,5.57
2018-11-01T04:42:46.272Z,6.87
2018-11-01T04:45:17.797Z,6.37
2018-11-01T04:47:49.513Z,6.73
2018-11-01T04:50:20.873Z,8.13
2018-11-01T04:52:52.466Z,6.80
2018-11-01T04:55:24.114Z,7.37
2018-11-01T04:57:55.757Z,6.30
2018-11-01T05:00:27.294Z,7.47
2018-11-01T05:02:58.867Z,6.67
2018-11-01T05:05:30.444Z,6.80
2018-11-01T05:08:02.126Z,8.30
2018-11-01T05:10:33.549Z,21.43
2018-11-01T05:13:05.115Z,16.30
2018-11-01T05:15:36.600Z,12.70
2018-11-01T05:18:08.149Z,13.33
2018-11-01T05:20:39.643Z,13.57
2018-11-01T05:23:11.252Z,12.17
2018-11-01T05:25:42.801Z,12.10
2018-11-01T05:28:14.366Z,9.00
2018-11-01T05:30:45.914Z,9.93
2018-11-01T05:33:17.517Z,8.77
2018-11-01T05:35:49.020Z,11.13
2018-11-01T05:38:20.442Z,10.17
2018-11-01T05:40:51.851Z,8.00
2018-11-01T05:43:26.593Z,8.10
2018-11-01T05:45:58.684Z,10.47
2018-11-01T05:48:30.115Z,7.93
2018-11-01T05:51:01.594Z,8.03
2018-11-01T05:53:33.030Z,8.13
2018-11-01T05:56:04.488Z,7.23
2018-11-01T05:58:36.031Z,7.50
2018-11-01T06:01:11.793Z,6.93
2018-11-01T06:03:43.644Z,6.93
2018-11-01T06:06:15.245Z,7.20
2018-11-01T06:08:48.861Z,6.30
2018-11-01T06:11:20.390Z,6.13
2018-11-01T06:13:52.000Z,6.60
2018-11-01T06:16:23.623Z,7.23
2018-11-01T06:18:55.313Z,5.27
2018-11-01T06:21:26.857Z,4.97
2018-11-01T06:23:58.333Z,6.93
2018-11-01T06:26:29.843Z,6.20
2018-11-01T06:29:01.337Z,6.07
2018-11-01T06:31:32.859Z,7.30
2018-11-01T06:34:04.426Z,5.63
2018-11-01T06:36:35.952Z,5.63
2018-11-01T06:39:08.905Z,5.10
2018-11-01T06:41:40.471Z,5.77
2018-11-01T06:44:12.000Z,4.83
2018-11-01T06:46:43.548Z,5.10
2018-11-01T06:49:14.950Z,4.70
2018-11-01T06:51:46.496Z,4.30
2018-11-01T06:54:18.193Z,5.13
2018-11-01T06:56:49.835Z,5.27
2018-11-01T06:59:21.477Z,4.77
2018-11-01T07:01:52.926Z,8.13
2018-11-01T07:04:24.404Z,5.47
2018-11-01T07:06:56.113Z,4.73
2018-11-01T07:09:27.638Z,4.43
2018-11-01T07:11:59.199Z,6.07
2018-11-01T07:14:30.739Z,5.37
2018-11-01T07:17:02.392Z,5.50
2018-11-01T07:19:33.940Z,5.77
2018-11-01T07:22:05.834Z,4.63
2018-11-01T07:24:37.360Z,4.27
2018-11-01T07:27:09.047Z,4.87
2018-11-01T07:29:40.622Z,4.47
2018-11-01T07:32:12.184Z,4.30
2018-11-01T07:34:43.641Z,5.30
2018-11-01T07:37:15.160Z,7.63
2018-11-01T07:39:46.810Z,4.40
2018-11-01T07:42:18.534Z,5.23
2018-11-01T07:44:50.021Z,5.07
2018-11-01T07:47:21.624Z,4.63
2018-11-01T07:49:53.135Z,5.60
2018-11-01T07:52:24.580Z,5.13
2018-11-01T07:54:56.177Z,4.37
2018-11-01T07:57:28.070Z,4.47
2018-11-01T07:59:59.658Z,4.07
2018-11-01T08:02:31.225Z,4.27
2018-11-01T08:05:02.720Z,5.70
2018-11-01T08:07:34.219Z,4.57
2018-11-01T08:10:11.186Z,4.43
2018-11-01T08:12:43.554Z,4.73
2018-11-01T08:15:16.614Z,4.57
2018-11-01T08:17:48.303Z,4.83
2018-11-01T08:20:19.967Z,4.93
2018-11-01T08:22:51.386Z,4.43
2018-11-01T08:25:22.849Z,5.07
2018-11-01T08:27:54.461Z,4.57
2018-11-01T08:30:26.000Z,4.10
2018-11-01T08:32:57.650Z,6.43
2018-11-01T08:35:29.129Z,4.67
2018-11-01T08:38:00.644Z,4.43
2018-11-01T08:40:32.282Z,3.80
2018-11-01T08:43:03.813Z,4.70
2018-11-01T08:45:35.532Z,3.93
2018-11-01T08:48:07.354Z,4.00
2018-11-01T08:50:38.860Z,4.60
2018-11-01T08:53:10.333Z,4.50
2018-11-01T08:55:42.067Z,6.63
2018-11-01T08:58:13.694Z,3.97
2018-11-01T09:00:45.153Z,4.80
2018-11-01T09:03:16.733Z,4.80
2018-11-01T09:05:48.364Z,4.40
2018-11-01T09:08:19.869Z,4.77
2018-11-01T09:10:51.617Z,4.00
2018-11-01T09:13:23.170Z,4.27
2018-11-01T09:15:54.749Z,4.23
2018-11-01T09:18:26.286Z,4.30
2018-11-01T09:20:57.806Z,4.17
2018-11-01T09:23:29.329Z,5.03
2018-11-01T09:26:00.855Z,4.33
2018-11-01T09:28:32.419Z,5.13
2018-11-01T09:31:03.860Z,4.17
2018-11-01T09:33:35.416Z,4.53
2018-11-01T09:36:07.596Z,3.50
2018-11-01T09:38:39.119Z,5.47
2018-11-01T09:41:10.555Z,3.83
2018-11-01T09:43:42.265Z,3.77
2018-11-01T09:46:13.859Z,4.00
2018-11-01T09:48:45.440Z,4.37
2018-11-01T09:51:17.042Z,4.13
2018-11-01T09:53:48.574Z,4.10
2018-11-01T09:56:20.159Z,3.97
2018-11-01T09:58:51.567Z,3.90
2018-11-01T10:01:23.035Z,4.53
2018-11-01T10:03:54.491Z,4.47
2018-11-01T10:06:26.125Z,4.70
2018-11-01T10:08:57.699Z,4.53
2018-11-01T10:11:29.165Z,4.30
2018-11-01T10:14:00.637Z,4.03
2018-11-01T10:16:32.336Z,4.37
2018-11-01T10:19:03.804Z,4.40
2018-11-01T10:21:35.433Z,4.17
2018-11-01T10:24:07.872Z,4.70
2018-11-01T10:26:39.552Z,4.50
2018-11-01T10:29:10.994Z,4.43
2018-11-01T10:31:42.587Z,4.20
2018-11-01T10:34:14.087Z,3.70
2018-11-01T10:36:45.598Z,3.70
2018-11-01T10:39:17.204Z,4.10
2018-11-01T10:41:48.822Z,4.40
2018-11-01T10:44:20.456Z,4.03
2018-11-01T10:46:52.002Z,4.27
2018-11-01T10:49:23.514Z,4.33
2018-11-01T10:51:55.046Z,4.73
2018-11-01T10:54:26.758Z,4.20
2018-11-01T10:56:58.217Z,4.30
2018-11-01T10:59:29.830Z,4.00
2018-11-01T11:02:06.673Z,4.43
2018-11-01T11:04:38.191Z,4.07
2018-11-01T11:07:09.736Z,4.97
2018-11-01T11:09:46.551Z,3.97
2018-11-01T11:12:18.152Z,3.70
2018-11-01T11:14:56.221Z,3.70
2018-11-01T11:17:27.883Z,4.00
2018-11-01T11:19:59.511Z,3.53
2018-11-01T11:22:30.958Z,4.10
2018-11-01T11:25:02.464Z,3.93
2018-11-01T11:27:34.046Z,3.50
2018-11-01T11:30:07.271Z,4.27
2018-11-01T11:32:38.984Z,3.87
2018-11-01T11:35:11.406Z,4.20
2018-11-01T11:37:42.937Z,4.57
2018-11-01T11:40:14.625Z,3.80
2018-11-01T11:42:46.152Z,4.13
2018-11-01T11:45:17.712Z,4.60
2018-11-01T11:47:49.176Z,3.73
2018-11-01T11:50:20.691Z,3.53
2018-11-01T11:52:52.260Z,4.70
2018-11-01T11:55:23.795Z,4.30
2018-11-01T11:57:55.342Z,4.07
2018-11-01T12:00:26.894Z,3.80
2018-11-01T12:02:58.463Z,3.60
2018-11-01T12:05:30.138Z,4.40
2018-11-01T12:08:01.903Z,3.70
2018-11-01T12:10:33.489Z,3.80
2018-11-01T12:13:05.326Z,3.73
2018-11-01T12:15:36.871Z,4.20
2018-11-01T12:18:08.388Z,3.70
2018-11-01T12:20:39.937Z,3.87
2018-11-01T12:23:11.643Z,4.23
2018-11-01T12:25:43.263Z,4.17
2018-11-01T12:28:14.879Z,4.37
2018-11-01T12:30:46.399Z,4.20
2018-11-01T12:33:17.896Z,3.60
2018-11-01T12:35:49.599Z,4.10
2018-11-01T12:38:21.154Z,3.67
2018-11-01T12:40:52.675Z,3.50
2018-11-01T12:43:24.204Z,3.93
2018-11-01T12:45:55.761Z,4.07
2018-11-01T12:48:27.257Z,3.70
2018-11-01T12:50:59.054Z,4.30
2018-11-01T12:53:30.530Z,4.13
2018-11-01T12:56:02.063Z,4.13
2018-11-01T12:58:33.585Z,4.00
2018-11-01T13:01:05.427Z,4.00
2018-11-01T13:03:36.963Z,3.50
2018-11-01T13:06:08.603Z,4.10
2018-11-01T13:08:40.156Z,4.60
2018-11-01T13:11:11.685Z,3.60
2018-11-01T13:13:43.214Z,3.77
2018-11-01T13:16:14.724Z,4.23
2018-11-01T13:18:46.613Z,3.80
2018-11-01T13:21:18.325Z,4.03
2018-11-01T13:23:49.879Z,4.13
2018-11-01T13:26:21.531Z,4.33
2018-11-01T13:28:53.081Z,4.80
2018-11-01T13:31:24.742Z,4.07
2018-11-01T13:33:56.322Z,3.83
2018-11-01T13:36:27.847Z,3.93
2018-11-01T13:38:59.361Z,4.10
2018-11-01T13:41:30.867Z,4.00
2018-11-01T13:44:02.484Z,3.67
2018-11-01T13:46:34.067Z,3.90
2018-11-01T13:49:05.728Z,4.50
2018-11-01T13:51:37.378Z,4.20
2018-11-01T13:54:08.918Z,3.70
2018-11-01T13:56:40.427Z,3.93
2018-11-01T13:59:11.738Z,3.97
2018-11-01T14:01:43.298Z,4.03
2018-11-01T14:04:15.385Z,4.13
2018-11-01T14:06:46.979Z,4.30
2018-11-01T14:09:18.516Z,4.13
2018-11-01T14:11:49.988Z,4.33
2018-11-01T14:14:22.029Z,4.20
2018-11-01T14:16:53.055Z,4.57
2018-11-01T14:19:24.568Z,4.47
2018-11-01T14:21:56.157Z,4.67
2018-11-01T14:24:27.627Z,4.03
2018-11-01T14:26:59.416Z,3.77
2018-11-01T14:29:31.046Z,5.73
2018-11-01T14:32:02.624Z,5.73
2018-11-01T14:34:34.243Z,3.73
2018-11-01T14:37:05.859Z,4.27
2018-11-01T14:39:37.318Z,3.83
2018-11-01T14:42:08.826Z,4.27
2018-11-01T14:44:40.497Z,4.37
2018-11-01T14:47:11.877Z,4.40
2018-11-01T14:49:43.414Z,4.33
2018-11-01T14:52:15.114Z,4.70
2018-11-01T14:54:47.328Z,4.10
2018-11-01T14:57:19.623Z,4.10
2018-11-01T14:59:50.374Z,4.47
2018-11-01T15:02:27.588Z,4.13
2018-11-01T15:04:59.257Z,4.27
2018-11-01T15:07:30.927Z,4.40
2018-11-01T15:10:02.388Z,4.00
2018-11-01T15:12:33.902Z,4.73
2018-11-01T15:15:06.943Z,4.60
2018-11-01T15:17:38.901Z,6.07
2018-11-01T15:20:11.213Z,4.50
2018-11-01T15:22:42.759Z,5.77
2018-11-01T15:25:14.259Z,4.10
2018-11-01T15:27:45.685Z,5.10
2018-11-01T15:30:17.408Z,4.23
2018-11-01T15:32:48.716Z,4.47
2018-11-01T15:35:20.222Z,4.00
2018-11-01T15:37:51.797Z,4.33
2018-11-01T15:40:23.448Z,4.30
2018-11-01T15:42:54.983Z,4.70
2018-11-01T15:45:26.562Z,5.47
2018-11-01T15:47:58.123Z,4.33
2018-11-01T15:50:29.883Z,4.83
2018-11-01T15:53:01.381Z,4.77
2018-11-01T15:55:33.125Z,6.83
2018-11-01T15:58:04.853Z,4.70
2018-11-01T16:00:36.457Z,4.40
2018-11-01T16:03:07.952Z,5.33
2018-11-01T16:05:39.423Z,4.50
2018-11-01T16:08:11.021Z,3.83
2018-11-01T16:10:42.645Z,6.27
2018-11-01T16:13:14.229Z,4.70
2018-11-01T16:15:45.713Z,4.77
2018-11-01T16:18:17.139Z,5.50
2018-11-01T16:20:48.833Z,5.40
2018-11-01T16:23:20.708Z,6.60
2018-11-01T16:25:52.461Z,6.63
2018-11-01T16:28:24.044Z,4.60
2018-11-01T16:30:55.642Z,4.80
2018-11-01T16:33:27.306Z,4.63
2018-11-01T16:35:58.913Z,4.73
2018-11-01T16:38:30.542Z,5.10
2018-11-01T16:41:02.082Z,5.87
2018-11-01T16:43:33.722Z,7.87
2018-11-01T16:46:05.640Z,5.03
2018-11-01T16:48:37.519Z,10.63
2018-11-01T16:51:09.247Z,10.33
2018-11-01T16:53:40.803Z,14.70
2018-11-01T16:56:12.412Z,21.53
2018-11-01T16:58:43.979Z,22.73
2018-11-01T17:01:15.664Z,16.97
2018-11-01T17:03:47.175Z,16.40
2018-11-01T17:06:18.795Z,19.57
2018-11-01T17:08:50.223Z,23.17
2018-11-01T17:11:21.856Z,22.20
2018-11-01T17:13:53.964Z,17.83
2018-11-01T17:16:25.762Z,15.17
2018-11-01T17:18:57.366Z,24.77
2018-11-01T17:21:28.951Z,19.90
2018-11-01T17:24:00.528Z,19.43
2018-11-01T17:26:32.314Z,11.13
2018-11-01T17:29:03.949Z,16.83
2018-11-01T17:31:35.555Z,14.03
2018-11-01T17:34:07.427Z,19.30
2018-11-01T17:36:39.042Z,14.47
2018-11-01T17:39:10.940Z,13.43
2018-11-01T17:41:42.647Z,18.10
2018-11-01T17:44:14.365Z,16.00
2018-11-01T17:46:45.899Z,11.43
2018-11-01T17:49:17.511Z,12.83
2018-11-01T17:51:51.619Z,13.70
2018-11-01T17:54:23.391Z,15.10
2018-11-01T17:56:55.123Z,14.63
2018-11-01T17:59:26.817Z,14.60
2018-11-01T18:01:58.645Z,12.73
2018-11-01T18:04:30.183Z,11.03
2018-11-01T18:07:01.757Z,19.67
2018-11-01T18:09:33.416Z,12.30
2018-11-01T18:12:05.932Z,14.07
2018-11-01T18:14:37.547Z,9.53
2018-11-01T18:17:09.070Z,10.27
2018-11-01T18:19:40.607Z,10.17
2018-11-01T18:22:12.326Z,11.60
2018-11-01T18:24:43.764Z,15.73
2018-11-01T18:27:15.340Z,12.40
2018-11-01T18:29:46.977Z,13.37
2018-11-01T18:32:18.503Z,10.47
2018-11-01T18:34:50.138Z,13.67
2018-11-01T18:37:21.645Z,7.57
2018-11-01T18:39:53.315Z,11.70
2018-11-01T18:42:25.146Z,12.43
2018-11-01T18:44:56.578Z,11.73
2018-11-01T18:47:28.306Z,9.57
2018-11-01T18:49:59.860Z,12.40
2018-11-01T18:52:31.577Z,10.13
2018-11-01T18:55:03.331Z,10.70
2018-11-01T18:57:34.887Z,10.37
2018-11-01T19:00:09.420Z,6.80
2018-11-01T19:02:41.036Z,7.97
2018-11-01T19:05:13.286Z,8.47
2018-11-01T19:07:45.616Z,8.73
2018-11-01T19:10:18.149Z,8.63
2018-11-01T19:12:49.783Z,9.03
2018-11-01T19:15:21.624Z,12.67
2018-11-01T19:17:53.558Z,15.03
2018-11-01T19:20:25.425Z,9.90
2018-11-01T19:22:56.959Z,25.00
2018-11-01T19:25:28.601Z,26.57
2018-11-01T19:28:00.271Z,45.53
2018-11-01T19:30:31.840Z,47.03
2018-11-01T19:33:03.493Z,37.67
2018-11-01T19:35:35.100Z,38.70
2018-11-01T19:38:06.696Z,34.20
2018-11-01T19:40:38.364Z,37.77
2018-11-01T19:43:09.953Z,33.73
2018-11-01T19:45:41.507Z,27.63
2018-11-01T19:48:13.158Z,29.43
2018-11-01T19:50:44.705Z,26.20
2018-11-01T19:53:16.256Z,22.30
2018-11-01T19:55:47.871Z,23.77
2018-11-01T19:58:19.346Z,22.10
2018-11-01T20:00:50.833Z,23.00
2018-11-01T20:03:22.639Z,21.43
2018-11-01T20:05:54.301Z,19.93
2018-11-01T20:08:26.122Z,18.53
2018-11-01T20:10:57.788Z,18.67
2018-11-01T20:13:29.335Z,15.67
2018-11-01T20:16:00.846Z,19.83
2018-11-01T20:18:32.339Z,17.87
2018-11-01T20:21:03.999Z,18.20
2018-11-01T20:23:35.638Z,14.43
2018-11-01T20:26:07.185Z,15.30
2018-11-01T20:28:38.613Z,13.23
2018-11-01T20:31:10.239Z,15.50
2018-11-01T20:33:42.669Z,16.17
2018-11-01T20:36:14.199Z,16.27
2018-11-01T20:38:45.860Z,15.70
2018-11-01T20:41:17.472Z,15.03
2018-11-01T20:43:49.517Z,13.53
2018-11-01T20:46:21.188Z,15.07
2018-11-01T20:48:53.014Z,14.87
2018-11-01T20:51:24.460Z,15.03
2018-11-01T20:53:56.052Z,13.03
2018-11-01T20:56:27.648Z,16.73
2018-11-01T20:58:59.676Z,13.70
2018-11-01T21:01:31.323Z,10.90
2018-11-01T21:04:03.043Z,12.10
2018-11-01T21:06:34.638Z,12.23
2018-11-01T21:09:09.552Z,11.33
2018-11-01T21:11:41.403Z,10.23
2018-11-01T21:14:12.968Z,10.57
2018-11-01T21:16:44.610Z,11.13
2018-11-01T21:19:16.292Z,9.93
2018-11-01T21:21:47.908Z,11.43
2018-11-01T21:24:19.464Z,10.67
2018-11-01T21:26:56.734Z,10.20
2018-11-01T21:29:28.783Z,11.23
2018-11-01T21:32:00.458Z,11.37
2018-11-01T21:34:32.220Z,12.80
2018-11-01T21:37:03.822Z,9.63
2018-11-01T21:39:35.392Z,8.90
2018-11-01T21:42:07.509Z,10.03
2018-11-01T21:44:39.052Z,10.87
2018-11-01T21:47:10.686Z,10.47
2018-11-01T21:49:42.466Z,8.40
2018-11-01T21:52:15.127Z,8.97
2018-11-01T21:54:46.800Z,11.00
2018-11-01T21:57:18.615Z,9.13
2018-11-01T21:59:50.269Z,9.77
2018-11-01T22:02:22.029Z,8.33
2018-11-01T22:04:53.666Z,7.43
2018-11-01T22:07:25.484Z,10.00
2018-11-01T22:09:57.731Z,9.83
2018-11-01T22:12:29.652Z,10.90
2018-11-01T22:15:01.332Z,9.23
2018-11-01T22:17:33.014Z,9.93
2018-11-01T22:20:05.250Z,7.43
2018-11-01T22:22:37.066Z,6.80
2018-11-01T22:25:09.793Z,10.63
2018-11-01T22:27:41.473Z,7.33
2018-11-01T22:30:13.197Z,7.63
2018-11-01T22:32:45.642Z,9.00
2018-11-01T22:35:17.570Z,7.70
2018-11-01T22:37:49.179Z,8.10
2018-11-01T22:40:20.892Z,7.27
2018-11-01T22:42:52.460Z,6.90
2018-11-01T22:45:24.250Z,8.70
2018-11-01T22:47:55.966Z,7.53
2018-11-01T22:50:27.892Z,6.50
2018-11-01T22:52:58.542Z,7.27
2018-11-01T22:55:30.189Z,7.43
2018-11-01T22:58:01.931Z,7.20
2018-11-01T23:00:34.360Z,7.30
2018-11-01T23:03:06.014Z,5.80
2018-11-01T23:07:07.527Z,6.13
2018-11-01T23:09:39.633Z,5.90
2018-11-01T23:12:11.289Z,5.60
2018-11-01T23:14:43.025Z,7.17
2018-11-01T23:17:14.677Z,5.93
2018-11-01T23:19:46.426Z,6.60
2018-11-01T23:22:18.093Z,6.13
2018-11-01T23:24:49.850Z,5.53
2018-11-01T23:27:21.551Z,5.33
2018-11-01T23:29:54.253Z,5.27
2018-11-01T23:32:26.043Z,6.30
2018-11-01T23:34:57.892Z,5.23
2018-11-01T23:37:35.151Z,5.60
2018-11-01T23:40:12.469Z,6.67
2018-11-01T23:42:51.066Z,6.13
2018-11-01T23:45:28.238Z,5.10
2018-11-01T23:47:59.807Z,4.50
2018-11-01T23:50:37.079Z,5.50
2018-11-01T23:54:11.647Z,4.83
2018-11-01T23:56:44.468Z,5.10
2018-11-01T23:59:16.184Z,5.73
